Time;durP1;ratioP1;P1;durP2;ratioP2;P2;SDS_P1;SDS_P2;PMS_P1;PMS_P2;Temp;Humidity;BMP_temperature;BMP_pressure;BME280_temperature;BME280_humidity;BME280_pressure;Samples;Min_cycle;Max_cycle;Signal;HPM_P1;HPM_P2
2023/12/13 00:01:38;;;;;;;2.65;2.00;;;10.80;99.90;;;;;;10401734;28;20228;-64
2023/12/13 00:06:42;;;;;;;5.45;1.80;;;10.70;99.90;;;;;;10397011;28;20278;-65
2023/12/13 00:11:46;;;;;;;2.83;1.77;;;10.70;99.90;;;;;;10399644;28;20220;-65
2023/12/13 00:16:51;;;;;;;6.90;2.13;;;10.70;99.90;;;;;;10403562;28;20205;-67
2023/12/13 00:22:03;;;;;;;4.63;2.00;;;10.70;99.90;;;;;;10397460;28;20213;-66
2023/12/13 00:27:06;;;;;;;2.73;1.53;;;10.60;99.90;;;;;;10399667;28;20247;-66
2023/12/13 00:32:12;;;;;;;4.13;2.50;;;10.60;99.90;;;;;;10404189;28;20293;-66
2023/12/13 00:37:16;;;;;;;3.93;1.80;;;10.60;99.90;;;;;;10404799;28;20251;-67
2023/12/13 00:42:19;;;;;;;4.88;1.75;;;10.50;99.90;;;;;;10402020;28;20263;-66
2023/12/13 00:47:24;;;;;;;5.17;1.33;;;10.50;99.90;;;;;;10400024;28;20212;-67
2023/12/13 00:52:28;;;;;;;4.60;1.85;;;10.50;99.90;;;;;;10398733;28;20658;-67
2023/12/13 00:57:32;;;;;;;3.70;1.43;;;10.50;99.90;;;;;;10402652;28;20212;-65
2023/12/13 01:02:38;;;;;;;3.25;1.38;;;10.40;99.90;;;;;;10407064;28;20246;-67
2023/12/13 01:07:41;;;;;;;3.47;1.73;;;10.40;99.90;;;;;;10400573;28;20192;-67
2023/12/13 01:12:45;;;;;;;4.07;1.33;;;10.30;99.90;;;;;;10398773;28;20274;-66
2023/12/13 01:17:50;;;;;;;4.82;1.40;;;10.30;99.90;;;;;;10398679;28;20590;-66
2023/12/13 01:22:54;;;;;;;3.10;1.60;;;10.30;99.90;;;;;;10392541;28;20235;-66
2023/12/13 01:27:57;;;;;;;2.67;1.10;;;10.30;99.90;;;;;;10404222;28;20208;-66
2023/12/13 01:33:03;;;;;;;4.27;1.13;;;10.20;99.90;;;;;;10411005;28;20675;-65
2023/12/13 01:38:07;;;;;;;2.77;1.17;;;10.30;99.90;;;;;;10411418;28;20208;-66
2023/12/13 01:43:21;;;;;;;1.70;0.93;;;10.20;99.90;;;;;;10411584;28;20748;-65
2023/12/13 01:48:28;;;;;;;1.53;0.90;;;10.30;99.90;;;;;;10412772;28;20227;-65
2023/12/13 01:53:34;;;;;;;2.15;0.80;;;10.30;99.90;;;;;;10404394;28;20224;-66
2023/12/13 01:58:39;;;;;;;4.27;1.20;;;10.30;99.90;;;;;;10404533;28;20725;-66
2023/12/13 02:03:44;;;;;;;2.80;1.10;;;10.30;99.90;;;;;;10407528;28;20270;-66
2023/12/13 02:08:47;;;;;;;2.63;1.10;;;10.20;99.90;;;;;;10403077;28;20196;-66
2023/12/13 02:13:52;;;;;;;3.87;1.47;;;10.30;99.90;;;;;;10411668;28;20228;-66
2023/12/13 02:18:57;;;;;;;3.83;1.30;;;10.20;99.90;;;;;;10400868;28;20208;-66
2023/12/13 02:24:05;;;;;;;3.73;1.20;;;10.20;99.90;;;;;;10412346;28;20220;-65
2023/12/13 02:29:09;;;;;;;8.73;1.70;;;10.20;99.90;;;;;;10399896;28;20510;-66
2023/12/13 02:34:13;;;;;;;3.50;1.40;;;10.20;99.90;;;;;;10397088;28;20248;-65
2023/12/13 02:39:18;;;;;;;5.47;1.70;;;10.20;99.90;;;;;;10402474;28;20686;-64
2023/12/13 02:44:22;;;;;;;4.90;1.60;;;10.30;99.90;;;;;;10403807;28;20707;-65
2023/12/13 02:49:26;;;;;;;6.80;2.00;;;10.20;99.90;;;;;;10409683;28;20200;-65
2023/12/13 02:54:31;;;;;;;4.82;1.48;;;10.30;99.90;;;;;;10409335;28;20274;-64
2023/12/13 02:59:35;;;;;;;6.28;1.67;;;10.30;99.90;;;;;;10410919;28;20644;-64
2023/12/13 03:04:38;;;;;;;5.90;1.83;;;10.30;99.90;;;;;;10399978;28;20224;-64
2023/12/13 03:09:43;;;;;;;5.00;1.90;;;10.30;99.90;;;;;;10384057;28;20734;-65
2023/12/13 03:14:47;;;;;;;4.10;1.83;;;10.30;99.90;;;;;;10396621;28;20247;-64
2023/12/13 03:19:50;;;;;;;6.13;2.53;;;10.30;99.90;;;;;;10406473;28;20204;-65
2023/12/13 03:24:57;;;;;;;9.40;3.37;;;10.30;99.90;;;;;;10399571;28;20266;-65
2023/12/13 03:30:01;;;;;;;8.83;1.80;;;10.30;99.90;;;;;;10402680;28;20232;-65
2023/12/13 03:35:06;;;;;;;6.30;1.90;;;10.30;99.90;;;;;;10404176;28;20228;-65
2023/12/13 03:40:12;;;;;;;3.40;2.27;;;10.30;99.90;;;;;;10404609;28;20197;-65
2023/12/13 03:45:16;;;;;;;7.00;2.30;;;10.30;99.90;;;;;;10408773;28;20274;-63
2023/12/13 03:50:20;;;;;;;6.13;1.83;;;10.30;99.90;;;;;;10398542;28;20197;-63
2023/12/13 03:55:25;;;;;;;6.07;2.10;;;10.30;99.90;;;;;;10400925;28;20228;-64
2023/12/13 04:00:30;;;;;;;8.50;2.22;;;10.40;99.90;;;;;;10400325;28;20539;-65
2023/12/13 04:05:34;;;;;;;7.20;1.95;;;10.40;99.90;;;;;;10402053;28;20270;-66
2023/12/13 04:10:39;;;;;;;4.90;1.80;;;10.40;99.90;;;;;;10408997;28;20208;-65
2023/12/13 04:15:43;;;;;;;9.20;2.07;;;10.40;99.90;;;;;;10404938;28;20706;-65
2023/12/13 04:20:47;;;;;;;6.17;1.67;;;10.40;99.90;;;;;;10385160;28;20209;-65
2023/12/13 04:25:52;;;;;;;6.70;2.27;;;10.30;99.90;;;;;;10405887;28;20200;-64
2023/12/13 04:30:55;;;;;;;4.80;2.10;;;10.40;99.90;;;;;;10401416;28;20294;-64
2023/12/13 04:36:00;;;;;;;9.00;2.33;;;10.40;99.90;;;;;;10400298;28;20238;-64
2023/12/13 04:41:05;;;;;;;5.38;2.00;;;10.40;99.90;;;;;;10408644;28;20278;-63
2023/12/13 04:46:09;;;;;;;8.35;2.13;;;10.40;99.90;;;;;;10399626;28;20196;-64
2023/12/13 04:51:13;;;;;;;7.07;2.03;;;10.40;99.90;;;;;;10392088;28;20223;-61
2023/12/13 04:56:18;;;;;;;7.45;1.63;;;10.40;99.90;;;;;;10402819;28;20227;-63
2023/12/13 05:01:21;;;;;;;8.37;2.03;;;10.40;99.90;;;;;;10395369;28;20219;-64
2023/12/13 05:06:25;;;;;;;6.35;2.45;;;10.40;99.90;;;;;;10409241;28;20200;-63
2023/12/13 05:11:30;;;;;;;6.43;2.10;;;10.40;99.90;;;;;;10400683;28;20224;-63
2023/12/13 05:16:33;;;;;;;6.70;2.30;;;10.40;99.90;;;;;;10404019;28;20259;-63
2023/12/13 05:21:37;;;;;;;6.80;2.23;;;10.30;99.90;;;;;;10412913;28;20250;-64
2023/12/13 05:26:42;;;;;;;8.10;2.13;;;10.30;99.90;;;;;;10401177;28;20197;-65
2023/12/13 05:31:46;;;;;;;9.90;2.13;;;10.40;99.90;;;;;;10413618;28;20277;-62
2023/12/13 05:36:49;;;;;;;8.03;2.43;;;10.30;99.90;;;;;;10413826;28;20765;-64
2023/12/13 05:41:56;;;;;;;8.97;2.30;;;10.30;99.90;;;;;;10415833;28;20286;-63
2023/12/13 05:47:00;;;;;;;10.77;2.70;;;10.30;99.90;;;;;;10410213;28;20596;-62
2023/12/13 05:52:04;;;;;;;9.53;2.60;;;10.30;99.90;;;;;;10414306;28;20228;-62
2023/12/13 05:57:09;;;;;;;8.07;3.20;;;10.30;99.90;;;;;;10413642;28;20217;-65
2023/12/13 06:02:13;;;;;;;7.33;2.60;;;10.40;99.90;;;;;;10413944;28;20224;-64
2023/12/13 06:07:16;;;;;;;19.57;8.60;;;10.30;99.90;;;;;;10413152;28;20200;-64
2023/12/13 06:12:21;;;;;;;19.07;10.10;;;10.40;99.90;;;;;;10411901;28;20228;-64
2023/12/13 06:17:25;;;;;;;16.50;7.47;;;10.30;99.90;;;;;;10411344;28;20216;-63
2023/12/13 06:22:29;;;;;;;9.30;3.53;;;10.30;99.90;;;;;;10411844;28;20640;-63
2023/12/13 06:27:42;;;;;;;10.13;3.37;;;10.30;99.90;;;;;;10411019;28;20619;-64
2023/12/13 06:32:46;;;;;;;9.17;3.27;;;10.30;99.90;;;;;;10372386;28;20216;-65
2023/12/13 06:37:50;;;;;;;12.63;3.80;;;10.40;99.90;;;;;;10412920;28;20216;-63
2023/12/13 06:42:55;;;;;;;8.90;3.17;;;10.30;99.90;;;;;;10410161;28;20224;-63
2023/12/13 06:47:59;;;;;;;9.07;3.63;;;10.30;99.90;;;;;;10404554;28;20200;-64
2023/12/13 06:53:03;;;;;;;13.50;3.80;;;10.30;99.90;;;;;;10412674;28;20250;-64
2023/12/13 06:58:08;;;;;;;14.20;4.57;;;10.30;99.90;;;;;;10412201;28;20258;-64
2023/12/13 07:03:12;;;;;;;8.33;3.40;;;10.30;99.90;;;;;;10412256;28;20246;-63
2023/12/13 07:08:16;;;;;;;8.90;3.80;;;10.40;99.90;;;;;;10408388;28;20205;-63
2023/12/13 07:13:21;;;;;;;10.67;3.83;;;10.40;99.90;;;;;;10409306;28;20243;-64
2023/12/13 07:18:24;;;;;;;9.45;3.75;;;10.40;99.90;;;;;;10411297;28;20199;-64
2023/12/13 07:23:31;;;;;;;11.67;3.67;;;10.40;99.90;;;;;;10411930;28;20243;-62
2023/12/13 07:28:36;;;;;;;13.50;4.30;;;10.50;99.90;;;;;;10408642;28;20216;-63
2023/12/13 07:33:40;;;;;;;9.30;3.60;;;10.50;99.90;;;;;;10412061;28;20224;-64
2023/12/13 07:38:45;;;;;;;10.73;4.00;;;10.50;99.90;;;;;;10411421;28;20258;-62
2023/12/13 07:43:50;;;;;;;10.83;3.97;;;10.50;99.90;;;;;;10411259;28;20228;-62
2023/12/13 07:48:56;;;;;;;13.30;6.10;;;10.50;99.90;;;;;;10410483;28;20449;-66
2023/12/13 07:54:01;;;;;;;10.63;4.65;;;10.60;99.90;;;;;;10410704;28;20312;-64
2023/12/13 07:59:06;;;;;;;12.10;4.13;;;10.60;99.90;;;;;;10410712;28;20227;-65
2023/12/13 08:04:09;;;;;;;13.37;3.93;;;10.60;99.90;;;;;;10411014;28;20212;-64
2023/12/13 08:09:13;;;;;;;10.77;4.10;;;10.60;99.90;;;;;;10406558;28;20261;-64
2023/12/13 08:14:18;;;;;;;12.17;4.17;;;10.60;99.90;;;;;;10409335;28;20228;-64
2023/12/13 08:19:21;;;;;;;10.77;3.87;;;10.60;99.90;;;;;;10410378;28;20261;-64
2023/12/13 08:24:25;;;;;;;10.03;4.07;;;10.60;99.90;;;;;;10399614;28;20224;-65
2023/12/13 08:29:30;;;;;;;10.82;3.95;;;10.60;99.90;;;;;;10387896;28;20230;-64
2023/12/13 08:34:34;;;;;;;11.07;3.77;;;10.60;99.90;;;;;;10410064;28;20270;-64
2023/12/13 08:39:37;;;;;;;11.83;3.30;;;10.50;99.90;;;;;;10410072;28;20212;-63
2023/12/13 08:44:43;;;;;;;8.17;3.33;;;10.60;99.90;;;;;;10411208;28;20262;-64
2023/12/13 08:49:47;;;;;;;9.37;2.97;;;10.60;99.90;;;;;;10410355;28;20730;-65
2023/12/13 08:54:51;;;;;;;9.23;3.20;;;10.60;99.90;;;;;;10379925;28;20768;-64
2023/12/13 08:59:55;;;;;;;9.13;3.50;;;10.60;99.90;;;;;;10410909;28;20244;-64
2023/12/13 09:05:11;;;;;;;10.47;3.27;;;10.60;99.90;;;;;;10406194;28;20224;-65
2023/12/13 09:10:15;;;;;;;11.23;3.60;;;10.70;99.90;;;;;;10405683;28;20208;-64
2023/12/13 09:15:20;;;;;;;13.00;3.37;;;10.70;99.90;;;;;;10402503;28;20605;-65
2023/12/13 09:20:23;;;;;;;8.60;3.40;;;10.70;99.90;;;;;;10410132;28;20212;-64
2023/12/13 09:25:27;;;;;;;8.23;3.40;;;10.80;99.90;;;;;;10409654;28;20278;-64
2023/12/13 09:30:32;;;;;;;8.30;3.10;;;10.80;99.90;;;;;;10410201;28;20209;-65
2023/12/13 09:35:36;;;;;;;9.15;2.90;;;10.80;99.90;;;;;;10411540;28;20757;-65
2023/12/13 09:40:40;;;;;;;8.83;3.20;;;10.80;99.90;;;;;;10384354;28;20577;-72
2023/12/13 09:45:47;;;;;;;9.43;3.30;;;10.90;99.90;;;;;;10385596;28;20201;-66
2023/12/13 09:50:53;;;;;;;6.67;2.87;;;10.90;99.90;;;;;;10416709;28;20274;-66
2023/12/13 09:56:00;;;;;;;11.32;3.42;;;11.00;99.90;;;;;;10416305;28;20271;-65
2023/12/13 10:01:10;;;;;;;11.25;3.50;;;11.00;99.90;;;;;;10415784;28;20304;-64
2023/12/13 10:06:15;;;;;;;9.77;2.97;;;11.10;99.90;;;;;;10414010;28;20199;-63
2023/12/13 10:11:19;;;;;;;10.03;3.10;;;11.20;99.90;;;;;;10414940;28;20228;-64
2023/12/13 10:16:26;;;;;;;12.23;2.60;;;11.20;99.90;;;;;;10412504;28;20292;-66
2023/12/13 10:21:30;;;;;;;12.65;3.85;;;11.20;99.90;;;;;;10414890;28;20220;-64
2023/12/13 10:26:35;;;;;;;9.35;2.88;;;11.20;99.90;;;;;;10414317;28;20651;-64
2023/12/13 10:31:41;;;;;;;9.48;2.70;;;11.30;99.90;;;;;;10414460;28;20282;-62
2023/12/13 10:36:54;;;;;;;10.57;2.85;;;11.30;99.90;;;;;;10414873;28;20216;-64
2023/12/13 10:41:59;;;;;;;10.85;3.38;;;11.30;99.90;;;;;;10375194;28;20294;-64
2023/12/13 10:47:09;;;;;;;11.77;3.25;;;11.30;99.90;;;;;;10413688;28;20224;-64
2023/12/13 10:52:14;;;;;;;11.15;2.97;;;11.30;99.90;;;;;;10413461;28;20645;-64
2023/12/13 10:57:18;;;;;;;8.43;2.85;;;11.40;99.90;;;;;;10412731;28;20234;-64
2023/12/13 11:02:24;;;;;;;10.63;2.97;;;11.40;99.90;;;;;;10413603;28;20408;-65
2023/12/13 11:07:28;;;;;;;8.68;3.00;;;11.40;99.90;;;;;;10413268;28;20266;-64
2023/12/13 11:12:31;;;;;;;12.03;3.33;;;11.30;99.90;;;;;;10410903;28;20219;-65
2023/12/13 11:17:39;;;;;;;9.60;3.22;;;11.30;99.90;;;;;;10411713;28;20632;-65
2023/12/13 11:22:47;;;;;;;17.52;7.65;;;11.30;99.90;;;;;;10404600;28;20224;-65
2023/12/13 11:27:53;;;;;;;13.20;5.18;;;11.40;99.90;;;;;;10409120;28;20208;-63
2023/12/13 11:32:58;;;;;;;13.52;5.60;;;11.40;99.90;;;;;;10412266;28;20223;-65
2023/12/13 11:38:03;;;;;;;17.83;8.68;;;11.40;99.90;;;;;;10411206;28;20282;-66
2023/12/13 11:43:07;;;;;;;16.73;7.90;;;11.40;99.90;;;;;;10404094;28;20228;-66
2023/12/13 11:48:12;;;;;;;5.75;2.05;;;11.40;99.90;;;;;;10403528;28;20203;-64
2023/12/13 11:53:16;;;;;;;5.57;1.93;;;11.40;99.90;;;;;;10410660;28;20225;-64
2023/12/13 11:58:19;;;;;;;5.65;2.28;;;11.40;99.90;;;;;;10409941;28;20223;-65
2023/12/13 12:03:24;;;;;;;7.40;2.20;;;11.40;99.90;;;;;;10408437;28;20711;-65
2023/12/13 12:08:28;;;;;;;7.37;2.17;;;11.50;99.90;;;;;;10410999;28;20571;-65
2023/12/13 12:13:31;;;;;;;6.90;2.00;;;11.50;99.90;;;;;;10410260;28;20610;-65
2023/12/13 12:18:38;;;;;;;4.22;2.00;;;11.50;99.90;;;;;;10408550;28;20258;-64
2023/12/13 12:23:44;;;;;;;5.43;2.20;;;11.40;99.90;;;;;;10408856;28;20228;-63
2023/12/13 12:28:48;;;;;;;6.05;3.08;;;11.40;99.90;;;;;;10408804;28;20216;-62
2023/12/13 12:33:56;;;;;;;7.78;3.80;;;11.40;99.90;;;;;;10409973;28;20640;-63
2023/12/13 12:39:00;;;;;;;5.83;3.20;;;11.30;99.90;;;;;;10401309;28;20277;-64
2023/12/13 12:44:04;;;;;;;5.77;2.90;;;11.20;99.90;;;;;;10402312;28;20246;-63
2023/12/13 12:49:09;;;;;;;4.72;3.00;;;11.10;99.90;;;;;;10408388;28;20247;-63
2023/12/13 12:54:15;;;;;;;6.67;3.57;;;11.10;99.90;;;;;;10408260;28;20225;-64
2023/12/13 12:59:21;;;;;;;4.03;3.00;;;11.00;99.90;;;;;;10410072;28;20224;-64
2023/12/13 13:04:27;;;;;;;6.37;3.17;;;11.00;99.90;;;;;;10392676;28;20235;-64
2023/12/13 13:09:30;;;;;;;5.88;3.75;;;11.00;99.90;;;;;;10408726;28;20620;-64
2023/12/13 13:14:34;;;;;;;5.30;3.93;;;10.90;99.90;;;;;;10409826;28;20274;-64
2023/12/13 13:19:39;;;;;;;5.70;3.38;;;10.90;99.90;;;;;;10409696;28;20247;-64
2023/12/13 13:24:43;;;;;;;7.35;3.70;;;10.90;99.90;;;;;;10417450;28;20228;-63
2023/12/13 13:29:47;;;;;;;4.33;3.00;;;10.90;99.90;;;;;;10417154;28;20234;-63
2023/12/13 13:34:52;;;;;;;7.20;3.33;;;10.90;99.90;;;;;;10416945;28;20224;-63
2023/12/13 13:39:56;;;;;;;5.93;3.60;;;10.90;99.90;;;;;;10393544;28;20279;-63
2023/12/13 13:44:59;;;;;;;6.95;4.03;;;10.90;99.90;;;;;;10408247;28;20254;-64
2023/12/13 13:50:07;;;;;;;6.47;5.30;;;10.90;99.90;;;;;;10417469;28;20209;-62
2023/12/13 13:55:11;;;;;;;5.30;3.97;;;10.90;99.90;;;;;;10415648;28;20647;-63
2023/12/13 14:00:19;;;;;;;4.68;3.30;;;11.00;99.90;;;;;;10416171;28;20224;-64
2023/12/13 14:05:25;;;;;;;3.40;3.10;;;11.00;99.90;;;;;;10398981;28;20204;-64
2023/12/13 14:10:28;;;;;;;3.97;3.40;;;11.00;99.90;;;;;;10415908;28;20208;-63
2023/12/13 14:15:32;;;;;;;5.05;4.20;;;11.10;99.90;;;;;;10415020;28;20278;-64
2023/12/13 14:20:37;;;;;;;4.10;3.70;;;11.10;99.90;;;;;;10413920;28;20707;-64
2023/12/13 14:25:42;;;;;;;4.38;3.47;;;11.10;99.90;;;;;;10414643;28;20224;-64
2023/12/13 14:30:46;;;;;;;4.37;3.03;;;11.10;99.90;;;;;;10404533;28;20230;-64
2023/12/13 14:35:51;;;;;;;6.63;3.43;;;11.10;99.90;;;;;;10411695;28;20208;-64
2023/12/13 14:40:54;;;;;;;4.63;3.33;;;11.10;99.90;;;;;;10413890;28;20224;-64
2023/12/13 14:45:58;;;;;;;4.13;3.30;;;11.00;99.90;;;;;;10410513;28;20204;-64
2023/12/13 14:51:04;;;;;;;7.05;3.55;;;11.00;99.90;;;;;;10405758;28;20286;-63
2023/12/13 14:56:09;;;;;;;5.00;3.95;;;10.90;99.90;;;;;;10404553;28;20261;-63
2023/12/13 15:01:12;;;;;;;5.90;4.30;;;10.90;99.90;;;;;;10413923;28;20596;-63
2023/12/13 15:06:17;;;;;;;6.63;4.30;;;10.90;99.90;;;;;;10411816;28;20590;-62
2023/12/13 15:11:21;;;;;;;8.60;5.27;;;10.80;99.90;;;;;;10405010;28;20270;-63
2023/12/13 15:16:28;;;;;;;10.53;6.50;;;10.80;99.90;;;;;;10412546;28;20265;-63
2023/12/13 15:21:33;;;;;;;8.07;5.30;;;10.80;99.90;;;;;;10405275;28;20220;-62
2023/12/13 15:26:37;;;;;;;7.17;5.03;;;10.80;99.90;;;;;;10401072;28;20255;-62
2023/12/13 15:31:41;;;;;;;6.20;5.30;;;10.80;99.90;;;;;;10411491;28;20231;-62
2023/12/13 15:36:46;;;;;;;8.47;4.87;;;10.80;99.90;;;;;;10411252;28;20224;-63
2023/12/13 15:41:51;;;;;;;7.93;5.67;;;10.70;99.90;;;;;;10411848;28;20227;-62
2023/12/13 15:46:54;;;;;;;8.47;5.40;;;10.70;99.90;;;;;;10410648;28;20263;-63
2023/12/13 15:52:02;;;;;;;7.90;5.30;;;10.70;99.90;;;;;;10404829;28;20216;-62
2023/12/13 15:57:06;;;;;;;7.73;5.90;;;10.70;99.90;;;;;;10411076;28;20753;-63
2023/12/13 16:02:10;;;;;;;9.27;6.00;;;10.70;99.90;;;;;;10410731;28;20596;-63
2023/12/13 16:07:15;;;;;;;7.53;5.90;;;10.60;99.90;;;;;;10409428;28;20209;-63
2023/12/13 16:12:19;;;;;;;10.33;6.03;;;10.60;99.90;;;;;;10409617;28;20604;-64
2023/12/13 16:17:22;;;;;;;7.67;5.70;;;10.60;99.90;;;;;;10410858;28;20224;-64
2023/12/13 16:22:28;;;;;;;14.13;9.53;;;10.60;99.90;;;;;;10409449;28;20224;-63
2023/12/13 16:27:32;;;;;;;13.77;9.30;;;10.60;99.90;;;;;;10375736;28;20263;-64
2023/12/13 16:32:37;;;;;;;11.37;8.67;;;10.60;99.90;;;;;;10407778;28;20220;-64
2023/12/13 16:37:42;;;;;;;12.87;9.63;;;10.60;99.90;;;;;;10396111;28;20215;-63
2023/12/13 16:42:46;;;;;;;14.07;9.73;;;10.60;99.90;;;;;;10409735;28;20228;-64
2023/12/13 16:47:52;;;;;;;15.60;9.30;;;10.60;99.90;;;;;;10385892;28;20273;-64
2023/12/13 16:52:57;;;;;;;16.97;9.57;;;10.50;99.90;;;;;;10403971;28;20270;-65
2023/12/13 16:58:01;;;;;;;13.27;10.30;;;10.50;99.90;;;;;;10417368;28;20246;-65
2023/12/13 17:03:05;;;;;;;15.97;10.53;;;10.50;99.90;;;;;;10422336;28;20585;-64
2023/12/13 17:08:10;;;;;;;15.97;12.07;;;10.50;99.90;;;;;;10416517;28;20232;-65
2023/12/13 17:13:14;;;;;;;16.43;11.37;;;10.50;99.90;;;;;;10420817;28;20687;-65
2023/12/13 17:18:18;;;;;;;19.27;11.93;;;10.50;99.90;;;;;;10411712;28;20216;-65
2023/12/13 17:23:23;;;;;;;18.37;12.10;;;10.50;99.90;;;;;;10408955;28;20224;-65
2023/12/13 17:28:27;;;;;;;18.73;13.20;;;10.50;99.90;;;;;;10416874;28;20233;-65
2023/12/13 17:33:32;;;;;;;16.47;13.10;;;10.50;99.90;;;;;;10416751;28;20224;-64
2023/12/13 17:38:38;;;;;;;12.90;10.50;;;10.50;99.90;;;;;;10412975;28;20220;-67
2023/12/13 17:43:43;;;;;;;16.03;10.67;;;10.50;99.90;;;;;;10409862;28;20224;-67
2023/12/13 17:48:47;;;;;;;13.17;10.70;;;10.50;99.90;;;;;;10409050;28;20193;-67
2023/12/13 17:53:52;;;;;;;15.77;10.97;;;10.50;99.90;;;;;;10407714;28;20220;-65
2023/12/13 17:58:55;;;;;;;15.00;11.53;;;10.50;99.90;;;;;;10412471;28;20756;-66
2023/12/13 18:03:59;;;;;;;14.60;11.77;;;10.50;99.90;;;;;;10409005;28;20232;-65
2023/12/13 18:09:04;;;;;;;15.73;12.57;;;10.40;99.90;;;;;;10409920;28;20196;-65
2023/12/13 18:14:08;;;;;;;15.70;13.10;;;10.40;99.90;;;;;;10408184;28;20266;-70
2023/12/13 18:19:12;;;;;;;17.27;12.77;;;10.40;99.90;;;;;;10413192;28;20224;-63
2023/12/13 18:24:17;;;;;;;13.73;12.27;;;10.40;99.90;;;;;;10409506;28;20233;-61
2023/12/13 18:29:20;;;;;;;17.50;13.30;;;10.40;99.90;;;;;;10405415;28;20209;-63
2023/12/13 18:34:24;;;;;;;14.70;11.70;;;10.40;99.90;;;;;;10401434;28;20269;-61
2023/12/13 18:39:29;;;;;;;16.70;11.67;;;10.40;99.90;;;;;;10407961;28;20841;-63
2023/12/13 18:44:33;;;;;;;15.70;13.10;;;10.40;99.90;;;;;;10407665;28;20220;-64
2023/12/13 18:49:36;;;;;;;18.70;12.80;;;10.40;99.90;;;;;;10400812;28;20192;-61
2023/12/13 18:54:41;;;;;;;16.50;13.00;;;10.40;99.90;;;;;;10412260;28;20224;-64
2023/12/13 18:59:46;;;;;;;17.47;13.03;;;10.40;99.90;;;;;;10398243;28;20297;-65
2023/12/13 19:04:50;;;;;;;18.60;13.60;;;10.40;99.90;;;;;;10356644;28;20301;-65
2023/12/13 19:09:55;;;;;;;19.23;13.07;;;10.40;99.90;;;;;;10405359;28;20196;-65
2023/12/13 19:14:58;;;;;;;19.17;13.80;;;10.40;99.90;;;;;;10406535;28;20215;-64
2023/12/13 19:20:03;;;;;;;22.37;15.60;;;10.40;99.90;;;;;;10408561;28;20252;-65
2023/12/13 19:25:09;;;;;;;19.87;14.30;;;10.40;99.90;;;;;;10409025;28;20216;-65
2023/12/13 19:30:13;;;;;;;22.67;15.47;;;10.40;99.90;;;;;;10407651;28;20254;-64
2023/12/13 19:35:17;;;;;;;23.27;16.87;;;10.50;99.90;;;;;;10406835;28;20726;-65
2023/12/13 19:40:22;;;;;;;24.50;18.10;;;10.50;99.90;;;;;;10405335;28;20216;-65
2023/12/13 19:45:26;;;;;;;28.85;24.02;;;10.40;99.90;;;;;;10402699;28;20507;-65
2023/12/13 19:50:29;;;;;;;22.77;19.20;;;10.50;99.90;;;;;;10405126;28;20219;-65
2023/12/13 19:55:34;;;;;;;25.97;19.77;;;10.50;99.90;;;;;;10406161;28;20216;-65
2023/12/13 20:00:38;;;;;;;22.73;18.33;;;10.50;99.90;;;;;;10406641;28;20313;-64
2023/12/13 20:05:42;;;;;;;20.13;16.57;;;10.50;99.90;;;;;;10407729;28;20250;-64
2023/12/13 20:10:47;;;;;;;19.30;15.07;;;10.50;99.90;;;;;;10406621;28;20196;-65
2023/12/13 20:15:50;;;;;;;21.10;15.70;;;10.50;99.90;;;;;;10406765;28;20195;-64
2023/12/13 20:20:56;;;;;;;21.70;17.03;;;10.40;99.90;;;;;;10405211;28;20244;-64
2023/12/13 20:26:02;;;;;;;23.40;17.93;;;10.40;99.90;;;;;;10398604;28;20208;-64
2023/12/13 20:31:06;;;;;;;23.17;18.67;;;10.40;99.90;;;;;;10397025;28;20282;-65
2023/12/13 20:36:11;;;;;;;24.73;18.73;;;10.40;99.90;;;;;;10405517;28;20725;-66
2023/12/13 20:41:16;;;;;;;22.97;18.20;;;10.40;99.90;;;;;;10404787;28;20251;-66
2023/12/13 20:46:20;;;;;;;22.77;18.10;;;10.40;99.90;;;;;;10404870;28;20729;-65
2023/12/13 20:51:24;;;;;;;21.90;16.43;;;10.40;99.90;;;;;;10404452;28;20756;-62
2023/12/13 20:56:29;;;;;;;16.17;13.50;;;10.40;99.90;;;;;;10404880;28;20204;-65
2023/12/13 21:01:32;;;;;;;11.53;9.63;;;10.40;99.90;;;;;;10402363;28;20659;-65
2023/12/13 21:06:36;;;;;;;12.63;9.97;;;10.40;99.90;;;;;;10405390;28;20204;-66
2023/12/13 21:11:41;;;;;;;11.63;8.40;;;10.30;99.90;;;;;;10376246;28;20592;-64
2023/12/13 21:16:45;;;;;;;8.20;7.00;;;10.30;99.90;;;;;;10406686;28;20230;-66
2023/12/13 21:21:48;;;;;;;7.10;5.83;;;10.30;99.90;;;;;;10403769;28;20631;-63
2023/12/13 21:26:53;;;;;;;8.43;5.90;;;10.30;99.90;;;;;;10398116;28;20254;-65
2023/12/13 21:31:57;;;;;;;5.53;4.07;;;10.30;99.90;;;;;;10397845;28;20224;-65
2023/12/13 21:37:01;;;;;;;6.73;4.00;;;10.20;99.90;;;;;;10400633;28;20201;-64
2023/12/13 21:42:06;;;;;;;5.67;4.20;;;10.20;99.90;;;;;;10398211;28;20799;-64
2023/12/13 21:47:10;;;;;;;5.93;4.53;;;10.20;99.90;;;;;;10367908;28;20205;-64
2023/12/13 21:52:17;;;;;;;6.57;4.73;;;10.20;99.90;;;;;;10416509;28;20561;-64
2023/12/13 21:57:22;;;;;;;6.07;5.30;;;10.20;99.90;;;;;;10416325;28;20204;-64
2023/12/13 22:02:26;;;;;;;8.70;6.77;;;10.10;99.90;;;;;;10416061;28;20232;-65
2023/12/13 22:07:30;;;;;;;7.37;6.33;;;10.10;99.90;;;;;;10409955;28;20246;-66
2023/12/13 22:12:36;;;;;;;9.33;7.17;;;10.10;99.90;;;;;;10409347;28;20212;-66
2023/12/13 22:17:40;;;;;;;8.57;7.17;;;10.10;99.90;;;;;;10410477;28;20576;-64
2023/12/13 22:22:44;;;;;;;7.60;6.73;;;10.10;99.90;;;;;;10362539;28;20263;-65
2023/12/13 22:27:49;;;;;;;9.97;7.87;;;10.10;99.90;;;;;;10410015;28;20212;-66
2023/12/13 22:32:53;;;;;;;8.43;7.20;;;10.10;99.90;;;;;;10403030;28;20282;-65
2023/12/13 22:37:57;;;;;;;9.87;7.90;;;10.10;99.90;;;;;;10409283;28;20633;-67
2023/12/13 22:43:03;;;;;;;13.33;10.07;;;10.10;99.90;;;;;;10408782;28;20577;-66
2023/12/13 22:48:06;;;;;;;23.80;16.67;;;10.10;99.90;;;;;;10410934;28;20208;-65
2023/12/13 22:53:10;;;;;;;28.33;20.07;;;10.10;99.90;;;;;;10410151;28;20279;-66
2023/12/13 22:58:15;;;;;;;33.37;20.10;;;10.10;99.90;;;;;;10407118;28;20203;-66
2023/12/13 23:03:19;;;;;;;29.60;20.70;;;10.10;99.90;;;;;;10411717;28;20228;-66
2023/12/13 23:08:22;;;;;;;29.77;19.37;;;10.10;99.90;;;;;;10411696;28;20204;-66
2023/12/13 23:13:27;;;;;;;33.53;19.70;;;10.00;99.90;;;;;;10409611;28;20220;-66
2023/12/13 23:18:31;;;;;;;28.93;19.53;;;10.00;99.90;;;;;;10408751;28;20227;-66
2023/12/13 23:23:35;;;;;;;29.70;20.00;;;9.90;99.90;;;;;;10410868;28;20242;-66
2023/12/13 23:28:40;;;;;;;26.70;17.73;;;9.90;99.90;;;;;;10405581;28;20267;-67
2023/12/13 23:33:43;;;;;;;24.83;17.00;;;9.80;99.90;;;;;;10406587;28;20241;-67
2023/12/13 23:38:47;;;;;;;23.67;16.70;;;9.80;99.90;;;;;;10409616;28;20627;-66
2023/12/13 23:43:52;;;;;;;24.37;16.80;;;9.80;99.90;;;;;;10408156;28;20266;-66
2023/12/13 23:48:57;;;;;;;25.77;17.27;;;9.80;99.90;;;;;;10410076;28;20199;-65
2023/12/13 23:54:01;;;;;;;24.30;17.10;;;9.70;99.90;;;;;;10403141;28;20248;-66
2023/12/13 23:59:06;;;;;;;23.47;16.80;;;9.70;99.90;;;;;;10407555;28;20226;-65
